Airport View

Enter AWOS ICAO identifier for current METAR.

ex. KFNL

KORF 192051Z 07007KT 10SM CLR 19/07 A3004 RMK AO2 SLP172 T01890072 56015

19 Oct 2019 21:52

Phone: 757-460-9348

Other Area AWOS: KNGU - KNTU - KNFE - KLFI

TAF KORF 191720Z 1918/2018 20004KT P6SM SCT100 BKN250 FM200200 12009KT P6SM VCSH OVC060 FM200600 09010KT 6SM -RA OVC040 FM200900 09020G30KT 4SM RA BR OVC010 FM201600 06020G30KT 2SM RA BR OVC007